Kirkland, Illinois
Current Conditions -  °F | °C
As of 4:55 AM on Friday 28 Nov 2014 (Local Time) from KDKB Reporting Station
Overcast Overcast  
Wind Chill:   Ceiling: 8000
Heat Index: 15°   Visibility: 10mi
Dew Point:   Wind: 8mph
Humidity: 77%   Direction: 150°SSE
Pressure: 30.3"   Gusts: NA
Location:  42.09°N, 88.85°W
Report Text: KDKB 281055Z AUTO 15007KT 10SM SCT055 OVC080 M09/M13 A3030 RMK AO2 T10931127
Loading
Personal Weather Stations






























Interactive Weather Map New forecast layout! Learn more

10-Day Weather Forecast

Advertisements
Track Severe Weather on mobile